createdAt,value
2022-07-29T00:02:26.908Z,23.84
2022-07-29T00:04:53.917Z,23.79
2022-07-29T00:07:20.829Z,23.70
2022-07-29T00:09:51.620Z,23.71
2022-07-29T00:12:25.625Z,23.76
2022-07-29T00:14:57.731Z,23.83
2022-07-29T00:17:25.333Z,23.84
2022-07-29T00:19:53.155Z,23.85
2022-07-29T00:22:21.113Z,23.81
2022-07-29T00:24:51.146Z,23.71
2022-07-29T00:27:18.700Z,23.69
2022-07-29T00:29:45.991Z,23.76
2022-07-29T00:32:12.811Z,23.72
2022-07-29T00:34:58.344Z,23.64
2022-07-29T00:37:25.560Z,23.63
2022-07-29T00:39:52.249Z,23.61
2022-07-29T00:42:18.985Z,23.64
2022-07-29T00:44:45.946Z,23.61
2022-07-29T00:47:13.381Z,23.56
2022-07-29T00:49:41.401Z,23.58
2022-07-29T00:52:10.326Z,23.44
2022-07-29T00:54:44.649Z,23.49
2022-07-29T00:57:12.947Z,23.53
2022-07-29T00:59:40.140Z,23.60
2022-07-29T01:02:07.230Z,23.51
2022-07-29T01:04:34.336Z,23.60
2022-07-29T01:07:05.281Z,23.68
2022-07-29T01:09:45.484Z,23.64
2022-07-29T01:12:20.138Z,23.64
2022-07-29T01:14:48.802Z,23.56
2022-07-29T01:17:20.243Z,23.59
2022-07-29T01:20:04.095Z,23.61
2022-07-29T01:22:42.094Z,23.65
2022-07-29T01:25:27.552Z,23.65
2022-07-29T01:28:16.156Z,23.64
2022-07-29T01:30:46.487Z,23.63
2022-07-29T01:33:36.982Z,23.63
2022-07-29T01:36:24.948Z,23.61
2022-07-29T01:39:10.247Z,23.66
2022-07-29T01:41:41.274Z,23.66
2022-07-29T01:44:16.949Z,23.68
2022-07-29T01:46:53.763Z,23.64
2022-07-29T01:49:29.209Z,23.70
2022-07-29T01:52:00.532Z,23.65
2022-07-29T01:54:37.367Z,23.66
2022-07-29T01:57:07.087Z,23.65
2022-07-29T01:59:36.560Z,23.64
2022-07-29T02:02:04.066Z,23.59
2022-07-29T02:04:36.423Z,23.66
2022-07-29T02:07:06.919Z,23.67
2022-07-29T02:09:36.742Z,23.58
2022-07-29T02:12:05.455Z,23.35
2022-07-29T02:14:38.061Z,23.34
2022-07-29T02:17:05.586Z,23.28
2022-07-29T02:19:35.143Z,23.39
2022-07-29T02:22:03.931Z,23.45
2022-07-29T02:24:31.976Z,23.38
2022-07-29T02:27:01.277Z,23.26
2022-07-29T02:29:31.767Z,23.23
2022-07-29T02:32:00.735Z,23.23
2022-07-29T02:34:29.350Z,23.09
2022-07-29T02:36:57.055Z,23.01
2022-07-29T02:39:25.479Z,23.12
2022-07-29T02:41:57.544Z,23.10
2022-07-29T02:44:28.960Z,23.09
2022-07-29T02:47:31.846Z,23.07
2022-07-29T02:50:11.683Z,23.09
2022-07-29T02:52:59.362Z,23.05
2022-07-29T02:55:47.958Z,22.94
2022-07-29T02:58:34.654Z,23.02
2022-07-29T03:01:04.888Z,22.99
2022-07-29T03:03:39.085Z,22.89
2022-07-29T03:06:07.179Z,22.90
2022-07-29T03:08:36.948Z,22.87
2022-07-29T03:11:05.823Z,22.70
2022-07-29T03:13:39.093Z,22.69
2022-07-29T03:16:07.041Z,22.74
2022-07-29T03:18:34.270Z,22.76
2022-07-29T03:21:01.420Z,22.75
2022-07-29T03:23:35.319Z,22.65
2022-07-29T03:26:07.444Z,22.68
2022-07-29T03:28:34.149Z,22.55
2022-07-29T03:31:01.097Z,22.51
2022-07-29T03:33:30.091Z,22.61
2022-07-29T03:35:57.220Z,22.59
2022-07-29T03:38:28.795Z,22.64
2022-07-29T03:41:04.425Z,22.69
2022-07-29T03:43:35.717Z,22.67
2022-07-29T03:46:05.021Z,22.68
2022-07-29T03:48:39.240Z,22.60
2022-07-29T03:51:06.826Z,22.59
2022-07-29T03:53:36.027Z,22.46
2022-07-29T03:56:03.351Z,22.45
2022-07-29T03:58:32.881Z,22.55
2022-07-29T04:00:59.727Z,22.61
2022-07-29T04:03:27.152Z,22.56
2022-07-29T04:06:06.900Z,22.62
2022-07-29T04:08:34.879Z,22.63
2022-07-29T04:11:03.067Z,22.74
2022-07-29T04:13:29.903Z,22.77
2022-07-29T04:15:57.009Z,22.70
2022-07-29T04:18:24.518Z,22.73
2022-07-29T04:20:52.014Z,22.74
2022-07-29T04:23:18.915Z,22.70
2022-07-29T04:25:48.691Z,22.75
2022-07-29T04:28:15.575Z,22.70
2022-07-29T04:30:43.986Z,22.62
2022-07-29T04:33:11.056Z,22.66
2022-07-29T04:35:47.055Z,22.62
2022-07-29T04:38:17.460Z,22.57
2022-07-29T04:40:44.511Z,22.74
2022-07-29T04:43:11.973Z,22.75
2022-07-29T04:45:41.338Z,22.71
2022-07-29T04:48:08.001Z,22.74
2022-07-29T04:50:35.010Z,22.77
2022-07-29T04:53:01.673Z,22.85
2022-07-29T04:55:28.379Z,22.97
2022-07-29T04:57:55.163Z,23.06
2022-07-29T05:00:21.858Z,23.18
2022-07-29T05:02:59.959Z,23.16
2022-07-29T05:05:26.766Z,23.19
2022-07-29T05:07:53.682Z,23.18
2022-07-29T05:10:20.548Z,23.28
2022-07-29T05:12:47.475Z,23.36
2022-07-29T05:15:14.443Z,23.41
2022-07-29T05:17:41.404Z,23.43
2022-07-29T05:20:08.752Z,23.52
2022-07-29T05:22:35.494Z,23.59
2022-07-29T05:25:08.495Z,23.72
2022-07-29T05:27:37.946Z,23.84
2022-07-29T05:30:05.672Z,23.92
2022-07-29T05:32:32.957Z,24.11
2022-07-29T05:34:59.770Z,24.07
2022-07-29T05:37:28.847Z,24.22
2022-07-29T05:39:56.648Z,24.35
2022-07-29T05:42:24.462Z,24.40
2022-07-29T05:44:53.504Z,24.40
2022-07-29T05:47:21.179Z,24.48
2022-07-29T05:49:48.233Z,24.58
2022-07-29T05:52:15.344Z,24.60
2022-07-29T05:54:44.501Z,24.72
2022-07-29T05:57:18.656Z,24.72
2022-07-29T05:59:46.399Z,24.75
2022-07-29T06:02:15.551Z,24.85
2022-07-29T06:04:42.617Z,24.83
2022-07-29T06:07:09.528Z,24.93
2022-07-29T06:09:36.622Z,25.05
2022-07-29T06:12:04.343Z,25.01
2022-07-29T06:14:31.076Z,24.97
2022-07-29T06:16:57.784Z,25.15
2022-07-29T06:19:24.489Z,25.24
2022-07-29T06:21:51.191Z,25.25
2022-07-29T06:24:18.842Z,25.36
2022-07-29T06:26:45.874Z,25.46
2022-07-29T06:29:12.922Z,25.44
2022-07-29T06:31:40.453Z,25.35
2022-07-29T06:34:07.669Z,25.42
2022-07-29T06:36:39.795Z,25.49
2022-07-29T06:39:08.801Z,25.63
2022-07-29T06:41:36.716Z,25.59
2022-07-29T06:44:03.751Z,25.56
2022-07-29T06:46:30.511Z,25.74
2022-07-29T06:48:57.458Z,25.79
2022-07-29T06:51:24.882Z,25.89
2022-07-29T06:54:00.514Z,25.95
2022-07-29T06:56:38.822Z,25.86
2022-07-29T06:59:07.725Z,25.87
2022-07-29T07:01:35.004Z,25.98
2022-07-29T07:04:01.844Z,26.25
2022-07-29T07:06:28.657Z,26.26
2022-07-29T07:08:55.491Z,26.30
2022-07-29T07:11:22.361Z,26.42
2022-07-29T07:13:49.267Z,26.54
2022-07-29T07:16:16.255Z,26.49
2022-07-29T07:18:43.287Z,26.53
2022-07-29T07:21:10.254Z,26.64
2022-07-29T07:23:36.968Z,26.69
2022-07-29T07:26:04.236Z,26.80
2022-07-29T07:28:30.935Z,26.82
2022-07-29T07:30:58.782Z,26.89
2022-07-29T07:33:25.813Z,27.00
2022-07-29T07:35:54.792Z,26.94
2022-07-29T07:38:21.546Z,26.94
2022-07-29T07:40:48.344Z,27.04
2022-07-29T07:43:14.995Z,27.08
2022-07-29T07:45:42.464Z,27.07
2022-07-29T07:48:11.761Z,27.21
2022-07-29T07:50:38.648Z,27.29
2022-07-29T07:53:05.641Z,27.25
2022-07-29T07:55:53.486Z,27.30
2022-07-29T07:58:19.715Z,27.42
2022-07-29T08:00:46.505Z,27.60
2022-07-29T08:03:16.731Z,27.61
2022-07-29T08:05:44.356Z,27.60
2022-07-29T08:08:11.339Z,27.55
2022-07-29T08:10:53.358Z,27.58
2022-07-29T08:13:22.106Z,27.78
2022-07-29T08:15:58.921Z,27.86
2022-07-29T08:18:26.827Z,27.87
2022-07-29T08:20:53.813Z,27.88
2022-07-29T08:23:20.804Z,28.10
2022-07-29T08:25:47.635Z,28.16
2022-07-29T08:28:18.366Z,28.09
2022-07-29T08:30:45.475Z,28.25
2022-07-29T08:33:14.647Z,28.45
2022-07-29T08:35:41.907Z,28.37
2022-07-29T08:38:08.703Z,28.50
2022-07-29T08:40:35.462Z,28.34
2022-07-29T08:43:07.259Z,28.35
2022-07-29T08:45:48.247Z,28.48
2022-07-29T08:48:25.801Z,28.54
2022-07-29T08:50:59.039Z,28.63
2022-07-29T08:53:29.347Z,28.71
2022-07-29T08:55:57.180Z,28.89
2022-07-29T08:58:26.080Z,29.15
2022-07-29T09:00:59.448Z,29.31
2022-07-29T09:03:30.917Z,29.34
2022-07-29T09:05:59.149Z,29.41
2022-07-29T09:08:27.654Z,29.63
2022-07-29T09:10:56.677Z,29.50
2022-07-29T09:13:23.820Z,29.31
2022-07-29T09:15:51.006Z,29.53
2022-07-29T09:18:36.691Z,29.89
2022-07-29T09:21:23.687Z,30.17
2022-07-29T09:24:08.640Z,30.42
2022-07-29T09:26:38.513Z,30.61
2022-07-29T09:29:19.983Z,30.88
2022-07-29T09:31:50.685Z,31.10
2022-07-29T09:34:22.924Z,31.15
2022-07-29T09:36:51.727Z,31.18
2022-07-29T09:39:30.059Z,31.28
2022-07-29T09:41:59.525Z,31.35
2022-07-29T09:44:27.069Z,31.48
2022-07-29T09:47:09.001Z,31.72
2022-07-29T09:49:50.736Z,31.81
2022-07-29T09:52:17.501Z,31.99
2022-07-29T09:54:44.186Z,32.12
2022-07-29T09:57:30.589Z,32.02
2022-07-29T10:00:09.678Z,32.00
2022-07-29T10:02:38.985Z,32.01
2022-07-29T10:05:16.904Z,32.07
2022-07-29T10:07:54.319Z,32.26
2022-07-29T10:10:25.349Z,32.33
2022-07-29T10:12:56.264Z,32.19
2022-07-29T10:15:26.856Z,32.11
2022-07-29T10:17:55.381Z,32.41
2022-07-29T10:20:24.340Z,32.59
2022-07-29T10:22:53.995Z,32.69
2022-07-29T10:25:21.671Z,32.46
2022-07-29T10:27:53.304Z,32.27
2022-07-29T10:30:25.079Z,32.23
2022-07-29T10:33:10.781Z,31.79
2022-07-29T10:35:50.558Z,31.77
2022-07-29T10:38:52.154Z,31.74
2022-07-29T10:41:32.081Z,31.76
2022-07-29T10:44:03.616Z,31.67
2022-07-29T10:46:36.518Z,31.77
2022-07-29T10:49:11.591Z,31.74
2022-07-29T10:51:54.302Z,31.15
2022-07-29T10:54:37.027Z,30.30
2022-07-29T10:57:17.775Z,30.10
2022-07-29T10:59:47.740Z,29.79
2022-07-29T11:02:40.989Z,29.27
2022-07-29T11:05:20.795Z,29.31
2022-07-29T11:08:25.930Z,29.40
2022-07-29T11:11:15.892Z,29.48
2022-07-29T11:13:53.369Z,29.52
2022-07-29T11:16:26.735Z,29.49
2022-07-29T11:19:13.244Z,29.52
2022-07-29T11:21:54.202Z,29.56
2022-07-29T11:24:49.372Z,29.53
2022-07-29T11:27:28.571Z,29.59
2022-07-29T11:30:05.568Z,29.63
2022-07-29T11:32:48.584Z,29.55
2022-07-29T11:35:16.663Z,29.65
2022-07-29T11:37:52.773Z,29.62
2022-07-29T11:40:23.075Z,29.61
2022-07-29T11:42:56.903Z,29.72
2022-07-29T11:45:44.629Z,29.72
2022-07-29T11:48:31.813Z,29.68
2022-07-29T11:51:00.256Z,29.57
2022-07-29T11:53:29.090Z,29.53
2022-07-29T11:56:01.417Z,29.50
2022-07-29T11:58:30.402Z,28.69
2022-07-29T12:01:04.455Z,28.24
2022-07-29T12:03:32.952Z,28.05
2022-07-29T12:06:07.571Z,27.90
2022-07-29T12:08:42.245Z,27.71
2022-07-29T12:11:17.634Z,27.56
2022-07-29T12:13:47.537Z,27.39
2022-07-29T12:16:16.432Z,27.33
2022-07-29T12:19:00.756Z,27.37
2022-07-29T12:21:30.229Z,27.43
2022-07-29T12:24:03.448Z,27.48
2022-07-29T12:26:34.296Z,27.51
2022-07-29T12:29:08.515Z,27.51
2022-07-29T12:31:42.116Z,27.46
2022-07-29T12:34:12.927Z,27.43
2022-07-29T12:36:40.342Z,27.43
2022-07-29T12:39:07.460Z,27.49
2022-07-29T12:41:34.409Z,27.41
2022-07-29T12:44:01.180Z,27.47
2022-07-29T12:46:28.352Z,27.56
2022-07-29T12:48:56.394Z,27.54
2022-07-29T12:51:40.456Z,27.52
2022-07-29T12:54:16.728Z,27.46
2022-07-29T12:56:45.452Z,27.34
2022-07-29T12:59:18.658Z,27.20
2022-07-29T13:01:48.298Z,27.04
2022-07-29T13:04:33.883Z,26.93
2022-07-29T13:07:04.542Z,26.83
2022-07-29T13:09:43.445Z,26.63
2022-07-29T13:12:15.191Z,26.44
2022-07-29T13:14:44.485Z,26.31
2022-07-29T13:17:24.450Z,26.12
2022-07-29T13:20:26.654Z,26.05
2022-07-29T13:22:53.440Z,25.81
2022-07-29T13:25:31.617Z,25.40
2022-07-29T13:28:00.745Z,25.26
2022-07-29T13:30:27.558Z,25.23
2022-07-29T13:32:54.436Z,25.16
2022-07-29T13:35:21.768Z,24.87
2022-07-29T13:37:48.969Z,24.71
2022-07-29T13:40:18.750Z,24.59
2022-07-29T13:42:46.218Z,24.62
2022-07-29T13:45:15.660Z,24.61
2022-07-29T13:47:47.705Z,24.58
2022-07-29T13:50:16.355Z,24.63
2022-07-29T13:52:42.986Z,24.66
2022-07-29T13:55:09.988Z,24.66
2022-07-29T13:57:36.921Z,24.67
2022-07-29T14:00:04.183Z,24.65
2022-07-29T14:02:30.901Z,24.65
2022-07-29T14:04:58.735Z,24.64
2022-07-29T14:07:25.536Z,24.80
2022-07-29T14:09:52.667Z,25.05
2022-07-29T14:12:20.407Z,25.46
2022-07-29T14:14:47.464Z,26.00
2022-07-29T14:17:14.701Z,26.53
2022-07-29T14:19:41.539Z,27.15
2022-07-29T14:22:09.664Z,27.57
2022-07-29T14:24:38.203Z,27.99
2022-07-29T14:27:09.356Z,28.10
2022-07-29T14:29:37.968Z,28.29
2022-07-29T14:32:11.738Z,28.50
2022-07-29T14:34:39.082Z,28.48
2022-07-29T14:37:06.906Z,28.80
2022-07-29T14:39:42.532Z,28.74
2022-07-29T14:42:12.879Z,28.34
2022-07-29T14:44:42.759Z,28.03
2022-07-29T14:47:10.118Z,27.74
2022-07-29T14:49:38.286Z,27.54
2022-07-29T14:52:05.607Z,27.53
2022-07-29T14:54:33.569Z,27.75
2022-07-29T14:57:00.806Z,27.71
2022-07-29T14:59:27.765Z,27.52
2022-07-29T15:01:54.682Z,27.34
2022-07-29T15:04:21.750Z,27.10
2022-07-29T15:06:48.907Z,26.98
2022-07-29T15:09:16.078Z,26.86
2022-07-29T15:11:42.829Z,26.59
2022-07-29T15:14:09.607Z,26.41
2022-07-29T15:16:38.429Z,26.38
2022-07-29T15:19:05.700Z,26.34
2022-07-29T15:21:32.943Z,26.24
2022-07-29T15:23:59.742Z,26.08
2022-07-29T15:26:26.792Z,25.90
2022-07-29T15:28:53.614Z,25.67
2022-07-29T15:31:20.372Z,25.59
2022-07-29T15:33:47.359Z,25.61
2022-07-29T15:36:35.615Z,25.54
2022-07-29T15:39:01.096Z,25.41
2022-07-29T15:41:27.846Z,25.37
2022-07-29T15:43:54.518Z,25.39
2022-07-29T15:46:39.729Z,25.35
2022-07-29T15:49:07.559Z,25.54
2022-07-29T15:51:34.704Z,26.91
2022-07-29T15:54:05.516Z,28.00
2022-07-29T15:56:32.620Z,28.89
2022-07-29T15:58:59.698Z,29.23
2022-07-29T16:01:28.034Z,27.79
2022-07-29T16:03:54.819Z,27.14
2022-07-29T16:06:22.320Z,26.68
2022-07-29T16:08:49.168Z,26.48
2022-07-29T16:11:16.130Z,26.29
2022-07-29T16:13:42.908Z,26.13
2022-07-29T16:16:10.582Z,26.52
2022-07-29T16:18:37.403Z,26.36
2022-07-29T16:21:04.157Z,26.13
2022-07-29T16:23:30.982Z,25.84
2022-07-29T16:26:00.142Z,25.71
2022-07-29T16:28:28.750Z,25.58
2022-07-29T16:30:55.587Z,25.49
2022-07-29T16:33:22.356Z,25.27
2022-07-29T16:35:49.404Z,25.01
2022-07-29T16:38:16.183Z,24.82
2022-07-29T16:40:42.904Z,24.71
2022-07-29T16:43:09.915Z,24.68
2022-07-29T16:45:46.233Z,24.71
2022-07-29T16:48:18.052Z,24.87
2022-07-29T16:50:45.920Z,24.94
2022-07-29T16:53:12.716Z,24.96
2022-07-29T16:55:42.450Z,24.92
2022-07-29T16:58:11.164Z,24.93
2022-07-29T17:00:38.569Z,25.06
2022-07-29T17:03:05.856Z,25.08
2022-07-29T17:05:52.691Z,25.05
2022-07-29T17:08:20.485Z,24.98
2022-07-29T17:10:47.686Z,24.96
2022-07-29T17:13:14.652Z,24.99
2022-07-29T17:15:44.547Z,25.00
2022-07-29T17:18:12.427Z,25.01
2022-07-29T17:20:41.365Z,24.88
2022-07-29T17:23:08.046Z,24.87
2022-07-29T17:25:34.791Z,24.88
2022-07-29T17:28:01.620Z,24.81
2022-07-29T17:30:29.517Z,24.82
2022-07-29T17:32:56.376Z,24.76
2022-07-29T17:35:41.897Z,24.80
2022-07-29T17:38:08.638Z,24.81
2022-07-29T17:40:35.365Z,24.76
2022-07-29T17:43:02.130Z,24.66
2022-07-29T17:45:50.226Z,24.58
2022-07-29T17:48:15.534Z,24.44
2022-07-29T17:50:42.188Z,24.42
2022-07-29T17:53:16.039Z,24.33
2022-07-29T17:55:46.580Z,24.23
2022-07-29T17:58:13.331Z,24.14
2022-07-29T18:00:40.484Z,24.09
2022-07-29T18:03:07.471Z,24.00
2022-07-29T18:05:35.173Z,23.97
2022-07-29T18:08:01.909Z,23.95
2022-07-29T18:10:28.659Z,23.94
2022-07-29T18:12:55.285Z,23.98
2022-07-29T18:15:22.036Z,23.96
2022-07-29T18:17:57.411Z,23.95
2022-07-29T18:20:27.510Z,23.86
2022-07-29T18:22:54.288Z,23.73
2022-07-29T18:25:21.146Z,23.70
2022-07-29T18:27:47.939Z,23.73
2022-07-29T18:30:17.636Z,23.76
2022-07-29T18:32:59.177Z,23.75
2022-07-29T18:35:32.270Z,23.68
2022-07-29T18:38:01.310Z,23.63
2022-07-29T18:40:29.885Z,23.51
2022-07-29T18:42:56.932Z,23.37
2022-07-29T18:45:28.610Z,23.41
2022-07-29T18:47:56.876Z,23.46
2022-07-29T18:50:29.519Z,23.33
2022-07-29T18:52:58.900Z,23.31
2022-07-29T18:55:26.236Z,23.34
2022-07-29T18:57:56.192Z,23.32
2022-07-29T19:00:24.623Z,23.29
2022-07-29T19:02:51.731Z,23.31
2022-07-29T19:05:18.665Z,23.32
2022-07-29T19:07:45.546Z,23.29
2022-07-29T19:10:12.433Z,23.29
2022-07-29T19:12:39.429Z,23.29
2022-07-29T19:15:07.690Z,23.27
2022-07-29T19:17:34.375Z,23.18
2022-07-29T19:20:01.107Z,23.03
2022-07-29T19:22:27.883Z,22.84
2022-07-29T19:24:54.829Z,22.85
2022-07-29T19:27:21.713Z,22.88
2022-07-29T19:29:48.445Z,22.84
2022-07-29T19:32:25.250Z,22.78
2022-07-29T19:35:10.975Z,22.61
2022-07-29T19:37:37.772Z,22.44
2022-07-29T19:40:06.381Z,22.43
2022-07-29T19:42:33.229Z,22.37
2022-07-29T19:45:00.092Z,22.29
2022-07-29T19:47:26.842Z,22.18
2022-07-29T19:49:53.708Z,22.21
2022-07-29T19:52:21.007Z,22.26
2022-07-29T19:54:47.737Z,22.26
2022-07-29T19:57:14.471Z,22.22
2022-07-29T19:59:41.455Z,22.26
2022-07-29T20:02:11.170Z,22.28
2022-07-29T20:04:38.733Z,22.20
2022-07-29T20:07:06.737Z,22.23
2022-07-29T20:09:33.593Z,22.28
2022-07-29T20:12:00.714Z,22.31
2022-07-29T20:14:27.375Z,22.37
2022-07-29T20:16:54.525Z,22.34
2022-07-29T20:19:21.444Z,22.27
2022-07-29T20:21:48.160Z,22.17
2022-07-29T20:24:14.865Z,22.05
2022-07-29T20:26:41.767Z,21.97
2022-07-29T20:29:09.253Z,21.83
2022-07-29T20:31:36.219Z,21.81
2022-07-29T20:34:03.235Z,21.89
2022-07-29T20:36:30.003Z,21.87
2022-07-29T20:38:56.814Z,21.92
2022-07-29T20:41:23.581Z,21.96
2022-07-29T20:43:50.528Z,21.97
2022-07-29T20:46:18.085Z,21.92
2022-07-29T20:48:45.787Z,21.88
2022-07-29T20:51:13.083Z,21.75
2022-07-29T20:53:40.621Z,21.81
2022-07-29T20:56:07.873Z,21.86
2022-07-29T20:58:36.643Z,21.87
2022-07-29T21:01:03.866Z,21.86
2022-07-29T21:03:30.955Z,21.90
2022-07-29T21:05:57.633Z,21.88
2022-07-29T21:08:26.041Z,21.73
2022-07-29T21:10:56.103Z,21.54
2022-07-29T21:13:24.152Z,21.42
2022-07-29T21:15:52.209Z,21.39
2022-07-29T21:18:32.926Z,21.36
2022-07-29T21:21:01.239Z,21.32
2022-07-29T21:23:31.776Z,21.25
2022-07-29T21:25:58.760Z,21.36
2022-07-29T21:28:30.611Z,21.32
2022-07-29T21:30:59.760Z,21.30
2022-07-29T21:33:28.188Z,21.32
2022-07-29T21:38:42.132Z,21.20
2022-07-29T21:41:10.872Z,21.20
2022-07-29T21:43:37.687Z,21.26
2022-07-29T21:46:09.463Z,21.25
2022-07-29T21:48:37.100Z,21.17
2022-07-29T21:51:05.869Z,21.16
2022-07-29T21:53:32.629Z,21.11
2022-07-29T21:55:59.307Z,21.17
2022-07-29T21:58:26.218Z,21.16
2022-07-29T22:00:53.991Z,21.11
2022-07-29T22:03:20.860Z,20.98
2022-07-29T22:05:48.017Z,20.96
2022-07-29T22:08:14.767Z,20.98
2022-07-29T22:10:41.619Z,20.93
2022-07-29T22:13:08.266Z,21.00
2022-07-29T22:15:35.095Z,21.11
2022-07-29T22:18:01.877Z,21.11
2022-07-29T22:20:28.551Z,21.07
2022-07-29T22:22:55.367Z,21.08
2022-07-29T22:25:22.280Z,21.11
2022-07-29T22:27:49.099Z,21.06
2022-07-29T22:30:16.150Z,21.03
2022-07-29T22:32:43.337Z,20.98
2022-07-29T22:35:10.855Z,21.01
2022-07-29T22:37:37.676Z,20.95
2022-07-29T22:40:05.574Z,20.89
2022-07-29T22:42:33.475Z,20.93
2022-07-29T22:45:00.461Z,20.99
2022-07-29T22:47:46.481Z,20.95
2022-07-29T22:50:14.023Z,20.93
2022-07-29T22:52:40.819Z,20.90
2022-07-29T22:55:07.827Z,20.90
2022-07-29T22:57:34.546Z,20.91
2022-07-29T23:00:02.479Z,20.90
2022-07-29T23:02:29.557Z,20.87
2022-07-29T23:04:56.806Z,20.88
2022-07-29T23:07:23.810Z,20.88
2022-07-29T23:09:50.501Z,20.83
2022-07-29T23:12:18.309Z,20.81
2022-07-29T23:14:44.981Z,20.81
2022-07-29T23:17:11.815Z,20.75
2022-07-29T23:19:38.582Z,20.71
2022-07-29T23:22:05.823Z,20.72
2022-07-29T23:24:32.479Z,20.68
2022-07-29T23:26:59.583Z,20.66
2022-07-29T23:29:26.610Z,20.67
2022-07-29T23:31:53.388Z,20.64
2022-07-29T23:34:20.215Z,20.67
2022-07-29T23:36:46.948Z,20.66
2022-07-29T23:39:13.849Z,20.69
2022-07-29T23:41:41.016Z,20.72
2022-07-29T23:44:07.894Z,20.75
2022-07-29T23:46:34.863Z,20.82
2022-07-29T23:49:01.877Z,20.90
2022-07-29T23:51:29.372Z,20.93
2022-07-29T23:53:56.556Z,20.89
2022-07-29T23:56:23.856Z,20.87
2022-07-29T23:58:50.638Z,20.82
